Time;durP1;ratioP1;P1;durP2;ratioP2;P2;SDS_P1;SDS_P2;PMS_P1;PMS_P2;Temp;Humidity;BMP_temperature;BMP_pressure;BME280_temperature;BME280_humidity;BME280_pressure;Samples;Min_cycle;Max_cycle;Signal;HPM_P1;HPM_P2
2022/02/07 00:00:40;;;;;;;10.82;1.80;;;2.90;99.90;;;;;;5072474;28;20085;-51
2022/02/07 00:03:14;;;;;;;;;;;2.90;99.90;;;;;;5079142;28;20035;-47
2022/02/07 00:05:39;;;;;;;18.27;2.25;;;2.90;99.90;;;;;;5099147;28;19938;-51
2022/02/07 00:08:08;;;;;;;9.82;1.98;;;2.90;99.90;;;;;;5082705;28;20447;-48
2022/02/07 00:10:36;;;;;;;9.13;1.80;;;2.80;99.90;;;;;;5090564;28;20043;-48
2022/02/07 00:13:01;;;;;;;21.60;2.35;;;2.80;99.90;;;;;;5082293;28;20059;-50
2022/02/07 00:15:27;;;;;;;17.25;2.17;;;2.90;99.90;;;;;;5089366;28;20055;-49
2022/02/07 00:17:53;;;;;;;20.95;3.22;;;2.90;99.90;;;;;;5096387;28;20032;-46
2022/02/07 00:20:21;;;;;;;10.40;1.70;;;2.90;99.90;;;;;;5093222;28;20055;-47
2022/02/07 00:22:49;;;;;;;16.73;2.53;;;3.00;99.90;;;;;;5089509;28;20028;-47
2022/02/07 00:25:16;;;;;;;12.75;3.30;;;3.00;99.90;;;;;;5091074;28;20450;-47
2022/02/07 00:27:42;;;;;;;14.85;2.30;;;3.00;99.90;;;;;;5090630;28;20043;-48
2022/02/07 00:30:09;;;;;;;16.92;1.83;;;3.00;99.90;;;;;;5087081;28;20023;-46
2022/02/07 00:32:36;;;;;;;14.82;2.05;;;3.00;99.90;;;;;;5090144;28;20380;-49
2022/02/07 00:35:03;;;;;;;22.95;2.97;;;3.00;99.90;;;;;;5111452;28;20404;-47
2022/02/07 00:37:30;;;;;;;14.50;1.83;;;3.00;99.90;;;;;;5089100;28;20400;-49
2022/02/07 00:40:31;;;;;;;15.57;2.08;;;3.00;99.90;;;;;;5090094;28;20036;-50
2022/02/07 00:43:14;;;;;;;22.10;2.63;;;2.90;99.90;;;;;;5084252;28;20060;-49
2022/02/07 00:48:10;;;;;;;13.25;2.20;;;2.70;99.90;;;;;;5093501;28;20032;-49
2022/02/07 00:50:38;;;;;;;10.23;1.85;;;2.70;99.90;;;;;;5092852;28;20047;-48
2022/02/07 00:53:05;;;;;;;9.38;2.40;;;2.60;99.90;;;;;;5081634;28;20031;-48
2022/02/07 00:55:31;;;;;;;8.30;1.95;;;2.60;99.90;;;;;;5082129;28;20075;-48
2022/02/07 00:57:57;;;;;;;8.15;2.00;;;2.60;99.90;;;;;;5083400;28;20047;-48
2022/02/07 01:00:22;;;;;;;11.82;1.85;;;2.60;99.90;;;;;;5084298;28;20029;-51
2022/02/07 01:02:48;;;;;;;10.73;2.00;;;2.70;99.90;;;;;;5093743;28;20069;-49
2022/02/07 01:05:14;;;;;;;20.17;1.58;;;2.60;99.90;;;;;;5080882;28;20029;-48
2022/02/07 01:07:47;;;;;;;16.08;1.95;;;2.40;99.90;;;;;;5089549;28;20492;-49
2022/02/07 01:10:16;;;;;;;10.85;1.80;;;2.20;99.90;;;;;;5091202;28;20031;-49
2022/02/07 01:56:08;;;;;;;25.08;3.20;;;2.60;99.90;;;;;;5018681;28;20596;-49
2022/02/07 01:58:34;;;;;;;29.40;3.80;;;2.60;99.90;;;;;;5078083;28;20455;-48
2022/02/07 02:01:00;;;;;;;33.65;3.25;;;2.60;99.90;;;;;;5093923;28;20078;-53
2022/02/07 02:03:25;;;;;;;25.85;4.03;;;2.60;99.90;;;;;;5087359;28;20028;-49
2022/02/07 02:05:52;;;;;;;20.85;2.25;;;2.60;99.90;;;;;;5082172;28;20035;-48
2022/02/07 02:08:18;;;;;;;20.88;2.90;;;2.70;99.90;;;;;;5084886;28;20107;-49
2022/02/07 02:10:46;;;;;;;23.13;3.00;;;2.70;99.90;;;;;;5093398;28;20028;-48
2022/02/07 02:13:17;;;;;;;20.63;2.58;;;2.60;99.90;;;;;;5090001;28;20028;-56
2022/02/07 02:15:53;;;;;;;30.27;3.35;;;2.60;99.90;;;;;;5091766;28;20039;-48
2022/02/07 02:46:06;;;;;;;15.75;2.22;;;2.70;99.90;;;;;;5090521;28;20054;-49
2022/02/07 02:48:34;;;;;;;17.55;3.00;;;2.70;99.90;;;;;;5092131;28;20437;-49
2022/02/07 02:51:07;;;;;;;20.98;2.22;;;2.80;99.90;;;;;;5083610;28;20452;-49
2022/02/07 02:53:32;;;;;;;;;;;2.80;99.90;;;;;;5092496;28;20051;-52
2022/02/07 02:55:58;;;;;;;23.08;2.28;;;2.80;99.90;;;;;;5081767;28;19943;-50
2022/02/07 02:58:24;;;;;;;17.38;2.38;;;2.80;99.90;;;;;;5090964;28;20047;-50
2022/02/07 03:00:52;;;;;;;14.18;2.20;;;2.80;99.90;;;;;;5081496;28;20031;-50
2022/02/07 03:03:18;;;;;;;16.95;2.75;;;2.80;99.90;;;;;;5086003;28;20016;-49
2022/02/07 03:05:46;;;;;;;18.48;2.60;;;2.80;99.90;;;;;;5087851;28;20541;-50
2022/02/07 03:08:14;;;;;;;14.50;1.85;;;2.80;99.90;;;;;;5091444;28;20493;-48
2022/02/07 03:11:04;;;;;;;19.90;3.15;;;2.70;99.90;;;;;;5082772;28;20035;-49
2022/02/07 03:18:36;;;;;;;17.92;1.83;;;2.70;99.90;;;;;;5092208;28;20034;-50
2022/02/07 03:21:03;;;;;;;10.68;1.48;;;2.70;99.90;;;;;;5090354;28;20028;-48
2022/02/07 03:23:29;;;;;;;13.77;2.03;;;2.70;99.90;;;;;;5089284;28;20036;-50
2022/02/07 03:25:54;;;;;;;14.07;1.80;;;2.70;99.90;;;;;;5090102;28;20027;-50
2022/02/07 03:28:24;;;;;;;21.00;2.20;;;2.70;99.90;;;;;;5088616;28;20024;-50
2022/02/07 03:30:50;;;;;;;10.02;2.20;;;2.70;99.90;;;;;;5077680;28;20504;-48
2022/02/07 03:33:17;;;;;;;7.78;1.73;;;2.70;99.90;;;;;;5079755;28;20063;-52
2022/02/07 03:35:42;;;;;;;13.13;1.58;;;2.70;99.90;;;;;;5089514;28;20070;-49
2022/02/07 03:38:09;;;;;;;18.38;2.35;;;2.80;99.90;;;;;;5079214;28;20024;-50
2022/02/07 03:40:36;;;;;;;7.68;1.60;;;2.80;99.90;;;;;;5082736;28;20072;-49
2022/02/07 03:43:02;;;;;;;13.02;2.22;;;2.80;99.90;;;;;;5078837;28;20032;-49
2022/02/07 03:45:27;;;;;;;17.67;2.38;;;2.80;99.90;;;;;;5087835;28;20036;-47
2022/02/07 03:47:53;;;;;;;26.23;2.25;;;2.90;99.90;;;;;;5080282;28;20047;-49
2022/02/07 03:50:19;;;;;;;16.83;1.77;;;2.90;99.90;;;;;;5082596;28;20028;-48
2022/02/07 03:52:45;;;;;;;11.82;2.28;;;2.90;99.90;;;;;;5087415;28;20024;-50
2022/02/07 03:55:11;;;;;;;26.52;3.20;;;2.90;99.90;;;;;;5088206;28;20028;-48
2022/02/07 03:57:36;;;;;;;13.35;2.10;;;2.80;99.90;;;;;;5072101;28;20032;-51
2022/02/07 04:00:06;;;;;;;22.83;2.63;;;2.80;99.90;;;;;;5093869;28;20027;-48
2022/02/07 04:02:36;;;;;;;16.90;2.38;;;2.80;99.90;;;;;;5093903;28;20028;-47
2022/02/07 04:05:25;;;;;;;14.57;2.03;;;2.90;99.90;;;;;;5086454;28;20508;-48
2022/02/07 04:07:48;;;;;;;13.55;1.90;;;2.90;99.90;;;;;;5096450;28;20036;-48
2022/02/07 04:10:13;;;;;;;15.75;2.60;;;2.80;99.90;;;;;;5091065;28;20363;-47
2022/02/07 04:12:45;;;;;;;17.10;2.50;;;2.80;99.90;;;;;;5088363;28;20039;-48
2022/02/07 04:15:15;;;;;;;16.25;2.40;;;2.90;99.90;;;;;;5085307;28;20040;-49
2022/02/07 04:17:46;;;;;;;20.60;1.95;;;2.80;99.90;;;;;;5091082;28;20040;-52
2022/02/07 04:20:11;;;;;;;17.58;3.45;;;2.90;99.90;;;;;;5089030;28;20024;-49
2022/02/07 04:22:37;;;;;;;17.25;2.28;;;2.80;99.90;;;;;;5089634;28;20055;-50
2022/02/07 04:25:03;;;;;;;20.75;2.97;;;2.80;99.90;;;;;;5094547;28;20016;-49
2022/02/07 04:27:29;;;;;;;10.35;1.75;;;2.80;99.90;;;;;;5107512;28;20025;-50
2022/02/07 04:29:54;;;;;;;15.85;2.10;;;2.80;99.90;;;;;;5091346;28;20381;-49
2022/02/07 04:32:20;;;;;;;8.90;1.60;;;2.80;99.90;;;;;;5085178;28;20032;-50
2022/02/07 04:34:46;;;;;;;15.90;2.53;;;2.80;99.90;;;;;;5082625;28;20041;-49
2022/02/07 04:37:11;;;;;;;9.57;1.80;;;2.80;99.90;;;;;;5082413;28;20032;-50
2022/02/07 04:39:37;;;;;;;14.70;2.13;;;2.80;99.90;;;;;;5091556;28;20041;-49
2022/02/07 04:42:06;;;;;;;9.65;1.90;;;2.80;99.90;;;;;;5088784;28;20389;-49
2022/02/07 04:44:39;;;;;;;9.88;1.77;;;2.80;99.90;;;;;;5093487;28;20036;-50
2022/02/07 04:47:37;;;;;;;16.02;1.52;;;2.80;99.90;;;;;;5085713;28;20404;-50
2022/02/07 04:50:26;;;;;;;9.95;1.30;;;2.80;99.90;;;;;;5079288;28;20032;-50
2022/02/07 04:53:16;;;;;;;10.05;1.83;;;2.80;99.90;;;;;;5080754;28;20048;-51
2022/02/07 04:55:48;;;;;;;12.43;1.35;;;2.70;99.90;;;;;;5092057;28;20443;-50
2022/02/07 05:01:28;;;;;;;13.77;1.92;;;2.80;99.90;;;;;;5096145;28;20028;-50
2022/02/07 05:03:37;;;;;;;18.15;2.28;;;2.80;99.90;;;;;;5086408;28;20317;-50
2022/02/07 05:14:15;;;;;;;20.52;2.30;;;3.00;99.90;;;;;;5089637;28;20081;-50
2022/02/07 05:16:41;;;;;;;18.73;1.98;;;3.10;99.90;;;;;;5074526;28;20420;-50
2022/02/07 05:19:07;;;;;;;19.40;2.28;;;3.10;99.90;;;;;;5083835;28;20168;-53
2022/02/07 05:21:33;;;;;;;16.15;2.22;;;3.10;99.90;;;;;;5091537;28;20111;-51
2022/02/07 05:23:58;;;;;;;12.93;2.13;;;3.10;99.90;;;;;;5075593;28;20027;-49
2022/02/07 05:26:25;;;;;;;19.52;1.88;;;3.10;99.90;;;;;;5086325;28;20012;-50
2022/02/07 05:28:52;;;;;;;21.65;2.40;;;3.10;99.90;;;;;;5084207;28;20024;-50
2022/02/07 05:31:20;;;;;;;17.45;2.40;;;3.10;99.90;;;;;;5084571;28;20110;-51
2022/02/07 05:33:47;;;;;;;15.63;2.33;;;3.10;99.90;;;;;;5074364;28;20403;-50
2022/02/07 05:36:12;;;;;;;20.13;2.53;;;3.20;99.90;;;;;;5085248;28;20033;-51
2022/02/07 05:38:41;;;;;;;24.40;3.00;;;3.20;99.90;;;;;;5094726;28;20032;-52
2022/02/07 05:41:08;;;;;;;24.13;2.65;;;3.20;99.90;;;;;;5080325;28;20492;-50
2022/02/07 05:43:35;;;;;;;25.90;2.80;;;3.20;99.90;;;;;;5089025;28;20032;-50
2022/02/07 05:46:01;;;;;;;26.95;3.10;;;3.20;99.90;;;;;;5099504;28;20541;-51
2022/02/07 05:48:27;;;;;;;17.08;2.58;;;3.20;99.90;;;;;;5084750;28;20050;-53
2022/02/07 05:50:52;;;;;;;26.30;3.40;;;3.20;99.90;;;;;;5087432;28;20107;-50
2022/02/07 05:53:18;;;;;;;37.30;3.88;;;3.30;99.90;;;;;;5085435;28;20039;-50
2022/02/07 05:55:43;;;;;;;18.92;3.75;;;3.30;99.90;;;;;;5094156;28;20043;-50
2022/02/07 05:58:09;;;;;;;37.35;4.43;;;3.30;99.90;;;;;;5092710;28;20032;-50
2022/02/07 06:00:36;;;;;;;28.48;3.10;;;3.30;99.90;;;;;;5093357;28;20048;-51
2022/02/07 06:03:03;;;;;;;26.13;3.28;;;3.30;99.90;;;;;;5089007;28;20031;-50
2022/02/07 06:05:29;;;;;;;26.60;4.18;;;3.30;99.90;;;;;;5091036;28;20066;-50
2022/02/07 06:07:55;;;;;;;11.38;2.50;;;3.30;99.90;;;;;;5079757;28;20176;-50
2022/02/07 06:10:21;;;;;;;26.35;4.20;;;3.40;99.90;;;;;;5091486;28;20448;-50
2022/02/07 06:12:47;;;;;;;23.70;2.67;;;3.40;99.90;;;;;;5079927;28;20033;-49
2022/02/07 06:15:14;;;;;;;16.45;3.03;;;3.50;99.90;;;;;;5088964;28;20031;-48
2022/02/07 06:17:41;;;;;;;23.85;3.83;;;3.50;99.90;;;;;;5095944;28;20025;-50
2022/02/07 06:20:08;;;;;;;24.65;3.45;;;3.50;99.90;;;;;;5085959;28;20036;-48
2022/02/07 06:22:33;;;;;;;20.80;3.88;;;3.60;99.90;;;;;;5088537;28;20035;-48
2022/02/07 06:25:00;;;;;;;28.52;3.33;;;3.60;99.90;;;;;;5085528;28;20028;-51
2022/02/07 06:27:26;;;;;;;27.02;3.85;;;3.60;99.90;;;;;;5086017;28;20044;-48
2022/02/07 06:29:51;;;;;;;28.17;4.93;;;3.60;99.90;;;;;;5096546;28;20115;-47
2022/02/07 06:32:17;;;;;;;30.75;3.25;;;3.60;99.90;;;;;;5090342;28;20082;-48
2022/02/07 06:34:43;;;;;;;25.35;4.45;;;3.60;99.90;;;;;;5079341;28;20060;-52
2022/02/07 06:37:08;;;;;;;24.58;3.53;;;3.70;99.90;;;;;;5090421;28;20489;-48
2022/02/07 06:39:35;;;;;;;33.67;4.78;;;3.70;99.90;;;;;;5092611;28;20127;-47
2022/02/07 06:42:00;;;;;;;48.50;3.97;;;3.70;99.90;;;;;;5074545;28;20020;-49
2022/02/07 06:44:28;;;;;;;28.05;4.05;;;3.70;99.90;;;;;;5092621;28;20085;-48
2022/02/07 06:46:54;;;;;;;34.03;4.35;;;3.80;99.90;;;;;;5092383;28;20135;-47
2022/02/07 06:49:20;;;;;;;24.08;3.45;;;3.80;99.90;;;;;;5091780;28;20497;-49
2022/02/07 06:51:46;;;;;;;33.80;3.92;;;3.80;99.90;;;;;;5099817;28;20020;-47
2022/02/07 06:54:11;;;;;;;29.27;3.90;;;3.70;99.90;;;;;;5076271;28;20481;-46
2022/02/07 06:56:37;;;;;;;30.70;4.68;;;3.80;99.90;;;;;;5083741;28;20493;-46
2022/02/07 06:59:03;;;;;;;32.08;5.53;;;3.80;99.90;;;;;;5086168;28;20028;-47
2022/02/07 07:01:29;;;;;;;31.20;5.57;;;3.80;99.90;;;;;;5100785;28;20020;-47
2022/02/07 07:03:55;;;;;;;37.60;4.70;;;3.80;99.90;;;;;;5081191;28;20077;-47
2022/02/07 07:06:21;;;;;;;31.17;5.65;;;3.80;99.90;;;;;;5091489;28;20032;-47
2022/02/07 07:08:52;;;;;;;27.48;4.13;;;3.80;99.90;;;;;;5083797;28;20533;-47
2022/02/07 07:11:21;;;;;;;27.92;4.55;;;3.80;99.90;;;;;;5072229;28;20039;-47
2022/02/07 07:13:51;;;;;;;36.28;4.55;;;3.80;99.90;;;;;;5074310;28;20539;-48
2022/02/07 07:18:50;;;;;;;31.10;4.93;;;3.80;99.90;;;;;;5092453;28;20028;-47
2022/02/07 07:21:16;;;;;;;38.75;4.97;;;3.80;99.90;;;;;;5092782;28;20512;-47
2022/02/07 07:23:42;;;;;;;36.40;4.93;;;3.90;99.90;;;;;;5092394;28;20470;-46
2022/02/07 07:26:08;;;;;;;25.80;4.80;;;3.80;99.90;;;;;;5092151;28;20028;-48
2022/02/07 07:28:36;;;;;;;28.40;4.50;;;3.80;99.90;;;;;;5092411;28;20036;-48
2022/02/07 07:31:03;;;;;;;39.53;6.07;;;3.80;99.90;;;;;;5091981;28;20109;-47
2022/02/07 07:33:32;;;;;;;39.13;5.40;;;3.80;99.90;;;;;;5092091;28;20103;-49
2022/02/07 07:35:57;;;;;;;36.75;6.35;;;3.80;99.90;;;;;;5091323;28;20303;-48
2022/02/07 07:38:24;;;;;;;25.15;4.90;;;3.80;99.90;;;;;;5092088;28;20351;-49
2022/02/07 07:40:50;;;;;;;42.33;5.40;;;3.80;99.90;;;;;;5091882;28;20024;-47
2022/02/07 07:43:16;;;;;;;41.45;6.40;;;3.80;99.90;;;;;;5092116;28;20060;-46
2022/02/07 07:45:48;;;;;;;31.60;5.30;;;3.80;99.90;;;;;;5113501;22;20071;-50
2022/02/07 07:48:20;;;;;;;35.45;5.82;;;3.80;99.90;;;;;;5091555;28;20030;-51
2022/02/07 07:50:53;;;;;;;39.42;5.70;;;3.90;99.90;;;;;;5091429;28;20544;-49
2022/02/07 07:53:29;;;;;;;43.53;6.97;;;3.90;99.90;;;;;;5091636;28;20032;-48
2022/02/07 08:01:39;;;;;;;26.30;4.60;;;4.20;99.90;;;;;;5088307;28;20408;-54
2022/02/07 08:04:06;;;;;;;37.70;5.85;;;4.20;99.90;;;;;;5091468;28;20499;-48
2022/02/07 08:06:40;;;;;;;35.65;4.93;;;4.20;99.90;;;;;;5091038;28;20115;-49
2022/02/07 08:11:33;;;;;;;40.50;5.07;;;4.20;99.90;;;;;;5088526;28;20032;-50
2022/02/07 08:14:00;;;;;;;36.45;5.13;;;4.20;99.90;;;;;;5087085;28;20023;-49
2022/02/07 08:16:26;;;;;;;31.23;4.55;;;4.20;99.90;;;;;;5090686;28;20028;-48
2022/02/07 08:18:53;;;;;;;40.20;5.78;;;4.20;99.90;;;;;;5091060;28;20081;-50
2022/02/07 08:21:19;;;;;;;44.08;6.20;;;4.20;99.90;;;;;;5089132;28;20465;-52
2022/02/07 08:23:45;;;;;;;40.33;5.13;;;4.20;99.90;;;;;;5072986;28;20046;-49
2022/02/07 08:26:11;;;;;;;37.42;5.72;;;4.30;99.90;;;;;;5092648;28;20476;-52
2022/02/07 08:28:37;;;;;;;40.33;5.65;;;4.30;99.90;;;;;;5093210;28;20115;-53
2022/02/07 08:31:03;;;;;;;34.42;5.38;;;4.40;99.90;;;;;;5090925;28;20145;-49
2022/02/07 08:33:29;;;;;;;43.75;5.93;;;4.50;99.90;;;;;;5088371;28;20036;-54
2022/02/07 08:35:55;;;;;;;36.70;6.25;;;4.60;99.90;;;;;;5080791;28;20059;-51
2022/02/07 08:38:20;;;;;;;34.17;5.50;;;4.60;99.90;;;;;;5088252;28;20054;-49
2022/02/07 08:40:47;;;;;;;41.60;5.75;;;4.60;99.90;;;;;;5090196;28;20032;-52
2022/02/07 08:43:12;;;;;;;26.50;5.80;;;4.60;99.90;;;;;;5093712;28;20031;-50
2022/02/07 08:45:38;;;;;;;48.20;9.57;;;4.70;99.90;;;;;;5100342;28;20036;-51
2022/02/07 08:48:05;;;;;;;56.50;7.78;;;4.80;99.90;;;;;;5083405;28;20024;-50
2022/02/07 08:50:31;;;;;;;41.35;5.97;;;4.80;99.90;;;;;;5092887;28;20028;-53
2022/02/07 08:52:59;;;;;;;59.67;8.60;;;4.80;99.90;;;;;;5097708;28;20039;-51
2022/02/07 08:55:48;;;;;;;48.67;6.93;;;4.80;99.90;;;;;;5089300;28;20107;-49
2022/02/07 08:58:17;;;;;;;56.70;7.45;;;4.90;99.90;;;;;;5093908;28;20490;-48
2022/02/07 09:11:10;;;;;;;46.60;6.38;;;5.30;99.90;;;;;;5087152;28;20028;-49
2022/02/07 09:13:39;;;;;;;49.30;7.38;;;5.30;99.90;;;;;;5088579;28;20069;-53
2022/02/07 09:18:37;;;;;;;52.03;7.15;;;5.20;99.90;;;;;;5076795;28;20058;-49
2022/02/07 09:21:06;;;;;;;68.63;8.32;;;5.10;99.90;;;;;;5082744;28;20032;-52
2022/02/07 09:23:32;;;;;;;49.95;7.45;;;5.10;99.90;;;;;;5076469;28;20082;-50
2022/02/07 09:25:58;;;;;;;61.80;7.55;;;5.10;99.90;;;;;;5073352;28;20759;-50
2022/02/07 09:28:24;;;;;;;37.05;5.75;;;5.10;99.90;;;;;;5100014;28;20097;-48
2022/02/07 09:30:50;;;;;;;46.45;5.95;;;5.10;99.90;;;;;;5093715;28;20085;-48
2022/02/07 09:33:17;;;;;;;29.27;4.55;;;5.00;99.90;;;;;;5087108;28;20038;-49
2022/02/07 09:35:43;;;;;;;30.33;5.53;;;5.00;99.90;;;;;;5083732;28;20060;-49
2022/02/07 09:38:09;;;;;;;31.60;5.60;;;4.90;99.90;;;;;;5102978;28;20032;-50
2022/02/07 09:40:35;;;;;;;31.67;4.93;;;4.90;99.90;;;;;;5088657;28;20036;-49
2022/02/07 09:43:01;;;;;;;29.75;5.07;;;5.00;99.90;;;;;;5098808;28;20052;-48
2022/02/07 09:45:38;;;;;;;37.45;4.90;;;5.20;99.90;;;;;;5079051;28;20028;-50
2022/02/07 09:48:08;;;;;;;38.72;5.47;;;5.30;99.90;;;;;;5089221;28;20487;-48
2022/02/07 09:50:35;;;;;;;32.47;5.40;;;5.40;99.90;;;;;;5093225;28;20117;-48
2022/02/07 09:53:01;;;;;;;38.83;5.47;;;5.40;99.90;;;;;;5078350;28;20425;-51
2022/02/07 09:55:27;;;;;;;35.42;4.57;;;5.40;99.90;;;;;;5092755;28;20339;-48
2022/02/07 09:57:54;;;;;;;33.47;4.63;;;5.50;99.90;;;;;;5093313;28;20060;-50
2022/02/07 10:00:26;;;;;;;44.03;6.03;;;5.50;99.90;;;;;;5090827;28;20024;-47
2022/02/07 10:03:06;;;;;;;32.70;4.90;;;5.50;99.90;;;;;;5076077;28;20020;-49
2022/02/07 10:05:44;;;;;;;30.27;5.00;;;5.60;99.90;;;;;;5088400;28;20381;-50
2022/02/07 10:08:17;;;;;;;39.17;6.00;;;5.70;99.90;;;;;;5090748;28;20024;-47
2022/02/07 10:46:14;;;;;;;56.75;7.13;;;5.50;99.90;;;;;;5090295;28;20347;-52
2022/02/07 10:48:43;;;;;;;47.50;6.55;;;5.70;99.90;;;;;;5090979;28;20378;-49
2022/02/07 10:51:31;;;;;;;56.88;7.38;;;5.80;99.90;;;;;;5073872;28;20065;-51
2022/02/07 10:54:05;;;;;;;62.20;8.35;;;5.90;99.90;;;;;;5091285;28;20032;-48
2022/02/07 10:56:36;;;;;;;41.78;7.00;;;6.10;99.90;;;;;;5099294;28;20038;-48
2022/02/07 10:59:06;;;;;;;44.25;5.63;;;6.20;99.90;;;;;;5073041;28;20075;-49
2022/02/07 11:04:15;;;;;;;44.58;5.95;;;6.30;99.90;;;;;;5090507;28;20088;-49
2022/02/07 11:06:45;;;;;;;33.42;5.45;;;6.40;99.90;;;;;;5092803;28;20028;-47
2022/02/07 11:09:26;;;;;;;39.20;6.10;;;6.60;99.90;;;;;;5101646;28;20028;-52
2022/02/07 11:17:59;;;;;;;36.90;5.55;;;6.80;99.90;;;;;;5091975;28;20110;-47
2022/02/07 11:20:07;;;;;;;37.42;5.68;;;7.00;99.90;;;;;;5069956;28;20032;-54
2022/02/07 11:27:55;;;;;;;46.70;5.00;;;6.60;99.90;;;;;;5093079;28;20103;-47
2022/02/07 11:30:42;;;;;;;38.22;4.88;;;6.50;99.90;;;;;;5090364;28;20060;-47
2022/02/07 11:33:39;;;;;;;35.38;4.47;;;6.60;99.90;;;;;;5081680;28;20537;-48
2022/02/07 11:36:35;;;;;;;43.20;6.45;;;6.70;99.90;;;;;;5083681;28;20485;-53
2022/02/07 11:39:03;;;;;;;33.92;4.45;;;6.70;99.90;;;;;;5087642;28;20059;-49
2022/02/07 11:41:29;;;;;;;28.00;4.50;;;6.80;99.90;;;;;;5089803;28;20034;-48
2022/02/07 11:43:56;;;;;;;40.72;6.22;;;6.90;99.90;;;;;;5080212;28;20381;-49
2022/02/07 11:46:23;;;;;;;24.13;4.43;;;7.00;99.90;;;;;;5087089;28;20138;-48
2022/02/07 11:48:56;;;;;;;31.38;4.40;;;7.20;99.90;;;;;;5088274;28;20044;-49
2022/02/07 11:51:29;;;;;;;33.85;4.72;;;7.20;99.90;;;;;;5088323;28;20300;-46
2022/02/07 11:53:58;;;;;;;36.20;4.80;;;7.20;99.90;;;;;;5084435;28;20428;-47
2022/02/07 11:56:36;;;;;;;23.48;3.97;;;7.30;99.90;;;;;;5090329;28;20035;-47
2022/02/07 11:59:09;;;;;;;26.48;4.10;;;7.40;99.90;;;;;;5082916;28;20024;-48
2022/02/07 12:01:53;;;;;;;25.25;5.00;;;7.40;99.90;;;;;;5089352;28;20123;-49
2022/02/07 12:04:43;;;;;;;35.15;4.85;;;7.30;99.90;;;;;;5087694;28;20024;-47
2022/02/07 12:07:14;;;;;;;26.02;4.18;;;7.50;99.90;;;;;;5094362;28;20106;-50
2022/02/07 12:09:59;;;;;;;25.55;4.07;;;7.70;99.90;;;;;;5077178;28;20357;-52
2022/02/07 12:15:34;;;;;;;29.48;4.22;;;8.90;99.90;;;;;;5083156;28;20457;-49
2022/02/07 12:18:14;;;;;;;19.83;2.80;;;9.40;99.90;;;;;;5090278;28;20427;-48
2022/02/07 12:20:45;;;;;;;23.42;3.47;;;9.50;99.90;;;;;;5081451;28;20036;-50
2022/02/07 12:23:12;;;;;;;26.08;4.28;;;10.00;99.90;;;;;;5087672;28;20389;-54
2022/02/07 12:25:52;;;;;;;21.50;3.88;;;10.40;99.90;;;;;;5086332;28;20031;-49
2022/02/07 12:33:36;;;;;;;18.58;3.67;;;9.70;99.90;;;;;;5101494;28;20028;-49
2022/02/07 12:36:04;;;;;;;26.52;4.15;;;10.10;99.90;;;;;;5094316;28;20057;-51
2022/02/07 12:38:33;;;;;;;21.02;4.47;;;10.50;99.90;;;;;;5093700;28;20036;-50
2022/02/07 12:40:59;;;;;;;28.75;4.78;;;10.10;99.90;;;;;;5080939;28;20036;-53
2022/02/07 12:43:26;;;;;;;29.20;6.20;;;10.30;99.90;;;;;;5087542;28;20134;-53
2022/02/07 12:45:52;;;;;;;32.15;4.30;;;10.20;99.90;;;;;;5071326;28;20125;-53
2022/02/07 12:48:26;;;;;;;29.02;3.97;;;10.20;99.90;;;;;;5087330;28;20027;-51
2022/02/07 12:50:55;;;;;;;27.40;4.30;;;9.80;99.90;;;;;;5071096;28;20122;-51
2022/02/07 12:53:23;;;;;;;28.75;5.55;;;9.90;99.90;;;;;;5081827;28;20025;-51
2022/02/07 12:55:55;;;;;;;35.17;5.47;;;9.80;99.90;;;;;;5088744;28;20032;-55
2022/02/07 12:58:23;;;;;;;39.40;5.53;;;10.40;99.90;;;;;;5083548;28;20025;-52
2022/02/07 13:00:49;;;;;;;36.63;6.28;;;10.70;99.90;;;;;;5090960;28;20037;-49
2022/02/07 13:03:15;;;;;;;30.92;5.40;;;10.60;99.90;;;;;;5096626;28;20020;-52
2022/02/07 13:05:43;;;;;;;26.33;3.88;;;9.60;99.90;;;;;;5092459;28;20036;-51
2022/02/07 13:08:16;;;;;;;37.95;5.20;;;8.10;99.90;;;;;;5071699;28;20104;-49
2022/02/07 13:10:50;;;;;;;23.42;4.20;;;6.80;99.90;;;;;;5094411;28;20028;-50
2022/02/07 13:14:03;;;;;;;22.88;3.35;;;6.00;99.90;;;;;;5098676;28;20059;-51
2022/02/07 13:16:02;;;;;;;20.27;3.67;;;5.40;99.90;;;;;;5084920;28;20071;-51
2022/02/07 13:18:33;;;;;;;28.80;4.70;;;5.10;99.90;;;;;;5092683;28;20032;-51
2022/02/07 13:21:03;;;;;;;27.08;2.92;;;5.20;99.90;;;;;;5088188;28;20043;-49
2022/02/07 13:23:29;;;;;;;25.35;4.47;;;6.30;99.90;;;;;;5083523;28;20021;-49
2022/02/07 13:25:56;;;;;;;19.05;3.00;;;7.40;99.90;;;;;;5078629;28;20461;-49
2022/02/07 13:28:25;;;;;;;16.88;2.85;;;7.90;99.90;;;;;;5095364;28;20024;-51
2022/02/07 13:30:56;;;;;;;23.73;4.00;;;8.10;99.90;;;;;;5075243;28;20036;-51
2022/02/07 13:33:23;;;;;;;21.37;3.10;;;7.70;99.90;;;;;;5088515;28;20063;-48
2022/02/07 13:35:54;;;;;;;17.50;3.03;;;7.70;99.90;;;;;;5095324;28;20031;-49
2022/02/07 13:38:20;;;;;;;24.35;3.45;;;7.60;99.90;;;;;;5091346;28;20047;-49
2022/02/07 13:40:48;;;;;;;25.98;3.55;;;8.00;99.90;;;;;;5090802;28;20024;-50
2022/02/07 13:43:24;;;;;;;18.65;3.83;;;8.40;99.90;;;;;;5096765;28;20021;-52
2022/02/07 13:45:55;;;;;;;20.42;3.55;;;8.70;99.90;;;;;;5108063;22;20371;-50
2022/02/07 13:48:22;;;;;;;19.10;3.60;;;9.10;99.90;;;;;;5091636;28;20522;-47
2022/02/07 13:50:53;;;;;;;25.17;4.32;;;9.50;99.90;;;;;;5084530;28;20508;-49
2022/02/07 13:53:20;;;;;;;26.27;4.18;;;9.60;99.90;;;;;;5093402;28;20028;-51
2022/02/07 13:55:48;;;;;;;24.23;4.60;;;10.30;99.90;;;;;;5093202;28;20036;-49
2022/02/07 13:58:19;;;;;;;18.55;3.97;;;10.80;99.90;;;;;;5075215;28;20804;-48
2022/02/07 14:00:48;;;;;;;21.92;3.88;;;10.80;99.90;;;;;;5072392;28;20047;-50
2022/02/07 14:03:30;;;;;;;25.40;5.10;;;10.90;99.90;;;;;;5071142;28;20414;-51
2022/02/07 14:06:22;;;;;;;34.20;5.07;;;10.60;99.90;;;;;;5080863;28;20032;-47
2022/02/07 14:08:52;;;;;;;25.10;4.55;;;10.70;99.90;;;;;;5064350;28;20029;-52
2022/02/07 14:11:25;;;;;;;22.90;4.55;;;10.40;99.90;;;;;;5074886;28;20090;-51
2022/02/07 14:13:53;;;;;;;25.88;4.28;;;10.40;99.90;;;;;;5065612;28;20029;-55
2022/02/07 14:16:21;;;;;;;22.33;3.88;;;9.70;99.90;;;;;;5077755;28;20029;-53
2022/02/07 14:18:47;;;;;;;23.13;4.70;;;9.40;99.90;;;;;;5062908;28;20037;-53
2022/02/07 14:21:15;;;;;;;29.30;5.28;;;9.60;99.90;;;;;;5078067;28;20031;-52
2022/02/07 14:23:47;;;;;;;24.42;4.13;;;10.10;99.90;;;;;;5072299;28;20313;-49
2022/02/07 14:26:18;;;;;;;26.52;4.07;;;10.40;99.90;;;;;;5072148;28;20504;-53
2022/02/07 14:28:47;;;;;;;38.75;6.25;;;10.30;99.90;;;;;;5072519;28;20029;-51
2022/02/07 14:31:14;;;;;;;23.88;3.95;;;10.30;99.90;;;;;;5071454;28;20036;-52
2022/02/07 14:33:40;;;;;;;20.88;4.25;;;9.90;99.90;;;;;;5055280;28;20437;-52
2022/02/07 14:36:06;;;;;;;33.75;4.47;;;9.60;99.90;;;;;;5070219;28;20067;-52
2022/02/07 14:38:32;;;;;;;35.28;5.28;;;9.30;99.90;;;;;;5075675;28;20475;-51
2022/02/07 14:40:58;;;;;;;30.50;5.68;;;8.70;99.90;;;;;;5054173;28;20032;-54
2022/02/07 14:43:30;;;;;;;41.15;5.43;;;8.30;99.90;;;;;;5078642;28;20024;-55
2022/02/07 14:46:08;;;;;;;33.58;5.70;;;7.90;99.90;;;;;;5053968;28;20352;-51
2022/02/07 14:48:36;;;;;;;29.73;5.40;;;7.80;99.90;;;;;;5080112;28;20428;-54
2022/02/07 14:51:06;;;;;;;28.63;4.70;;;7.50;99.90;;;;;;5067177;28;20050;-50
2022/02/07 14:53:36;;;;;;;23.52;3.92;;;7.20;99.90;;;;;;5058301;28;20060;-51
2022/02/07 14:56:03;;;;;;;19.67;3.53;;;6.80;99.90;;;;;;5063664;28;20043;-51
2022/02/07 14:58:29;;;;;;;15.98;2.95;;;6.70;99.90;;;;;;5087794;28;20039;-50
2022/02/07 15:00:54;;;;;;;26.35;3.20;;;6.60;99.90;;;;;;5080308;28;20048;-51
2022/02/07 15:03:21;;;;;;;26.35;5.15;;;6.30;99.90;;;;;;5073485;28;20060;-49
2022/02/07 15:05:50;;;;;;;26.88;4.75;;;6.20;99.90;;;;;;5070473;28;20047;-48
2022/02/07 15:08:16;;;;;;;25.77;4.20;;;6.20;99.90;;;;;;5079205;28;20028;-50
2022/02/07 15:10:42;;;;;;;24.77;4.00;;;6.10;99.90;;;;;;5071790;28;20367;-48
2022/02/07 15:13:09;;;;;;;29.73;4.80;;;6.10;99.90;;;;;;5074188;28;20103;-47
2022/02/07 15:15:36;;;;;;;30.15;4.20;;;6.00;99.90;;;;;;5075113;28;20482;-48
2022/02/07 15:18:05;;;;;;;28.73;4.15;;;5.90;99.90;;;;;;5069893;28;20063;-51
2022/02/07 15:20:32;;;;;;;27.60;3.50;;;5.60;99.90;;;;;;5069975;28;20040;-47
2022/02/07 15:22:58;;;;;;;18.58;2.53;;;5.70;99.90;;;;;;5079380;28;20121;-48
2022/02/07 15:25:30;;;;;;;24.35;3.22;;;5.60;99.90;;;;;;5070393;28;20481;-52
2022/02/07 15:27:58;;;;;;;33.95;4.22;;;5.60;99.90;;;;;;5079087;28;20028;-49
2022/02/07 15:30:25;;;;;;;23.17;2.90;;;5.50;99.90;;;;;;5078277;28;20055;-49
2022/02/07 15:32:52;;;;;;;23.67;3.65;;;5.40;99.90;;;;;;5090892;28;20032;-53
2022/02/07 15:35:19;;;;;;;26.75;3.65;;;5.40;99.90;;;;;;5070826;28;20409;-49
2022/02/07 15:37:45;;;;;;;19.80;4.03;;;5.40;99.90;;;;;;5089553;28;20038;-52
2022/02/07 15:40:12;;;;;;;28.20;3.97;;;5.30;99.90;;;;;;5067719;28;20107;-49
2022/02/07 15:42:38;;;;;;;28.08;3.75;;;5.30;99.90;;;;;;5074585;28;20448;-53
2022/02/07 15:45:05;;;;;;;17.70;3.40;;;5.30;99.90;;;;;;5074419;28;20021;-55
2022/02/07 15:47:35;;;;;;;24.45;4.03;;;5.20;99.90;;;;;;5075391;28;20396;-49